Palo Verde, Arizona
Current Conditions -  °F | °C
As of 3:15 PM on Wednesday 28 Jan 2015 (Local Time) from KBXK Reporting Station
Clear Clear  
Wind Chill: 72°   Ceiling: Unl
Heat Index: 72°   Visibility: 10mi
Dew Point: 52°   Wind: 3mph
Humidity: 50%   Direction: 280°W
Pressure: 30.09"   Gusts: NA
Location:  33.35°N, 112.68°W
Report Text: KBXK 282215Z AUTO 28003KT 10SM CLR 22/11 A3009 RMK AO1
Loading
Personal Weather Stations






























Interactive Weather Map New forecast layout! Learn more

10-Day Weather Forecast

Advertisements
Track Severe Weather on mobile